createdAt,value
2022-11-16T00:01:25.021Z,0.77
2022-11-16T00:07:12.083Z,1.00
2022-11-16T00:12:58.766Z,0.75
2022-11-16T00:18:45.471Z,0.60
2022-11-16T00:24:32.230Z,0.40
2022-11-16T00:30:18.863Z,0.50
2022-11-16T00:36:07.855Z,0.80
2022-11-16T00:41:54.530Z,0.32
2022-11-16T00:47:41.396Z,0.60
2022-11-16T00:53:28.183Z,0.50
2022-11-16T00:59:14.848Z,0.70
2022-11-16T01:05:02.557Z,0.20
2022-11-16T01:10:49.476Z,0.30
2022-11-16T01:16:36.742Z,0.17
2022-11-16T01:22:23.429Z,0.17
2022-11-16T01:28:10.338Z,0.43
2022-11-16T01:34:07.181Z,0.22
2022-11-16T01:39:56.947Z,0.50
2022-11-16T01:45:45.457Z,0.50
2022-11-16T01:51:35.132Z,0.20
2022-11-16T01:57:32.023Z,0.28
2022-11-16T02:03:28.431Z,0.35
2022-11-16T02:09:52.995Z,0.25
2022-11-16T02:16:12.701Z,0.63
2022-11-16T02:22:14.197Z,0.20
2022-11-16T02:28:15.272Z,0.47
2022-11-16T02:34:05.114Z,0.77
2022-11-16T02:39:59.604Z,0.57
2022-11-16T02:45:49.862Z,0.50
2022-11-16T02:51:39.925Z,0.90
2022-11-16T02:58:03.586Z,1.08
2022-11-16T03:04:02.953Z,0.63
2022-11-16T03:09:51.179Z,0.35
2022-11-16T03:15:41.300Z,0.17
2022-11-16T03:27:30.307Z,0.82
2022-11-16T03:33:50.200Z,0.65
2022-11-16T03:39:39.554Z,0.40
2022-11-16T03:45:27.878Z,0.77
2022-11-16T03:51:16.785Z,0.55
2022-11-16T03:57:03.754Z,0.60
2022-11-16T04:02:50.621Z,0.65
2022-11-16T04:08:59.059Z,0.90
2022-11-16T04:15:05.203Z,0.43
2022-11-16T04:21:26.212Z,0.30
2022-11-16T04:27:34.159Z,0.13
2022-11-16T04:33:41.707Z,0.25
2022-11-16T04:39:28.478Z,0.65
2022-11-16T04:45:34.178Z,0.20
2022-11-16T04:51:21.743Z,0.40
2022-11-16T04:57:08.708Z,0.40
2022-11-16T05:03:00.969Z,0.50
2022-11-16T05:08:48.671Z,0.43
2022-11-16T05:14:36.113Z,0.40
2022-11-16T05:20:41.488Z,0.68
2022-11-16T05:26:29.140Z,1.05
2022-11-16T05:32:17.470Z,0.30
2022-11-16T05:38:04.803Z,0.40
2022-11-16T05:43:56.084Z,0.60
2022-11-16T05:49:42.877Z,0.93
2022-11-16T05:55:29.769Z,0.80
2022-11-16T06:01:16.611Z,0.57
2022-11-16T06:07:03.603Z,0.60
2022-11-16T06:12:54.396Z,0.30
2022-11-16T06:18:43.948Z,1.08
2022-11-16T06:24:30.979Z,1.25
2022-11-16T06:30:18.913Z,0.35
2022-11-16T06:36:06.128Z,0.80
2022-11-16T06:41:52.870Z,0.38
2022-11-16T06:47:39.806Z,0.75
2022-11-16T06:53:30.591Z,0.47
2022-11-16T06:59:26.261Z,1.10
2022-11-16T07:05:13.364Z,1.27
2022-11-16T07:11:04.428Z,1.60
2022-11-16T07:16:59.024Z,0.50
2022-11-16T07:22:47.018Z,1.42
2022-11-16T07:28:36.288Z,3.33
2022-11-16T07:34:23.615Z,1.48
2022-11-16T07:40:21.818Z,1.55
2022-11-16T07:52:22.350Z,0.90
2022-11-16T07:58:21.343Z,1.08
2022-11-16T08:04:09.209Z,0.75
2022-11-16T08:09:59.846Z,0.70
2022-11-16T08:15:47.301Z,0.75
2022-11-16T08:21:36.684Z,4.03
2022-11-16T08:27:23.976Z,1.35
2022-11-16T08:33:13.431Z,0.40
2022-11-16T08:39:00.607Z,1.48
2022-11-16T08:44:48.804Z,1.40
2022-11-16T08:51:02.377Z,0.70
2022-11-16T08:56:45.627Z,0.70
2022-11-16T09:02:35.129Z,0.50
2022-11-16T09:08:22.298Z,0.68
2022-11-16T09:14:09.410Z,0.63
2022-11-16T09:19:58.728Z,0.45
2022-11-16T09:25:53.627Z,0.60
2022-11-16T09:31:41.051Z,0.70
2022-11-16T09:37:27.797Z,0.90
2022-11-16T09:43:45.332Z,0.98
2022-11-16T09:49:38.471Z,1.00
2022-11-16T09:55:32.512Z,0.90
2022-11-16T10:01:34.748Z,2.33
2022-11-16T10:07:27.905Z,0.80
2022-11-16T10:13:36.848Z,0.90
2022-11-16T10:19:52.510Z,0.32
2022-11-16T10:25:44.839Z,0.43
2022-11-16T10:31:42.735Z,0.40
2022-11-16T10:37:32.012Z,0.38
2022-11-16T10:43:23.211Z,0.40
2022-11-16T10:49:33.623Z,1.08
2022-11-16T10:55:22.559Z,0.60
2022-11-16T11:01:10.906Z,0.40
2022-11-16T11:07:21.383Z,0.50
2022-11-16T11:13:11.378Z,0.63
2022-11-16T11:19:31.733Z,0.40
2022-11-16T11:25:24.946Z,0.60
2022-11-16T11:31:32.248Z,0.50
2022-11-16T11:37:44.963Z,0.73
2022-11-16T11:43:34.348Z,0.43
2022-11-16T11:49:33.208Z,0.82
2022-11-16T11:55:20.535Z,0.68
2022-11-16T12:01:29.876Z,0.65
2022-11-16T12:07:37.844Z,1.08
2022-11-16T12:13:51.080Z,0.70
2022-11-16T12:20:11.474Z,0.50
2022-11-16T12:26:05.278Z,0.63
2022-11-16T12:32:08.092Z,0.73
2022-11-16T12:38:00.377Z,0.75
2022-11-16T12:50:38.464Z,0.90
2022-11-16T12:56:32.350Z,0.80
2022-11-16T13:02:34.028Z,1.10
2022-11-16T13:08:23.629Z,1.20
2022-11-16T13:14:24.905Z,0.50
2022-11-16T13:20:30.651Z,0.60
2022-11-16T13:27:18.330Z,1.13
2022-11-16T13:33:51.025Z,0.98
2022-11-16T13:40:00.140Z,0.90
2022-11-16T13:45:49.783Z,1.23
2022-11-16T13:51:36.518Z,1.15
2022-11-16T13:57:27.240Z,1.25
2022-11-16T14:03:19.813Z,1.17
2022-11-16T14:15:25.086Z,1.13
2022-11-16T14:21:36.503Z,1.23
2022-11-16T14:27:49.394Z,1.25
2022-11-16T14:33:37.784Z,0.82
2022-11-16T14:39:27.836Z,1.23
2022-11-16T14:45:22.876Z,1.55
2022-11-16T14:51:39.162Z,1.42
2022-11-16T14:57:45.584Z,1.38
2022-11-16T15:03:49.551Z,2.55
2022-11-16T15:09:39.368Z,1.48
2022-11-16T15:15:28.977Z,2.08
2022-11-16T15:21:23.445Z,1.17
2022-11-16T15:27:34.975Z,1.92
2022-11-16T15:33:46.478Z,0.93
2022-11-16T15:39:36.145Z,1.20
2022-11-16T15:45:25.533Z,1.27
2022-11-16T15:51:12.309Z,1.48
2022-11-16T15:57:07.920Z,1.80
2022-11-16T16:03:06.399Z,2.22
2022-11-16T16:09:07.306Z,1.38
2022-11-16T16:15:24.952Z,1.50
2022-11-16T16:21:14.029Z,1.45
2022-11-16T16:27:01.028Z,1.20
2022-11-16T16:32:50.530Z,2.72
2022-11-16T16:38:38.739Z,1.70
2022-11-16T16:44:25.431Z,2.17
2022-11-16T16:50:12.305Z,2.78
2022-11-16T16:56:04.133Z,1.80
2022-11-16T17:01:51.622Z,1.83
2022-11-16T17:07:38.434Z,2.58
2022-11-16T17:13:25.253Z,1.88
2022-11-16T17:19:14.770Z,1.88
2022-11-16T17:25:01.752Z,3.38
2022-11-16T17:37:50.592Z,2.28
2022-11-16T17:43:37.723Z,1.40
2022-11-16T17:49:27.442Z,2.03
2022-11-16T17:55:16.036Z,1.95
2022-11-16T18:01:03.315Z,2.10
2022-11-16T18:06:50.954Z,3.05
2022-11-16T18:12:38.608Z,1.20
2022-11-16T18:18:27.242Z,1.92
2022-11-16T18:24:52.935Z,2.55
2022-11-16T18:30:43.076Z,1.33
2022-11-16T18:36:37.552Z,1.77
2022-11-16T18:42:24.520Z,1.88
2022-11-16T18:48:11.260Z,1.52
2022-11-16T18:53:58.242Z,3.20
2022-11-16T18:59:45.904Z,1.08
2022-11-16T19:05:32.676Z,1.42
2022-11-16T19:11:19.595Z,1.00
2022-11-16T19:17:06.375Z,0.82
2022-11-16T19:22:59.327Z,0.82
2022-11-16T19:28:47.904Z,1.38
2022-11-16T19:34:35.259Z,4.03
2022-11-16T19:40:25.403Z,1.13
2022-11-16T19:46:17.003Z,0.98
2022-11-16T19:52:07.342Z,1.40
2022-11-16T19:57:55.203Z,1.23
2022-11-16T20:03:51.927Z,1.23
2022-11-16T20:09:38.794Z,1.25
2022-11-16T20:15:26.493Z,1.00
2022-11-16T20:21:30.853Z,1.20
2022-11-16T20:27:17.436Z,2.65
2022-11-16T20:33:04.225Z,1.27
2022-11-16T20:38:51.809Z,1.13
2022-11-16T20:44:40.227Z,0.80
2022-11-16T20:50:36.495Z,1.00
2022-11-16T20:56:27.173Z,1.17
2022-11-16T21:02:13.991Z,1.50
2022-11-16T21:08:02.194Z,0.65
2022-11-16T21:14:08.174Z,2.47
2022-11-16T21:20:25.876Z,0.77
2022-11-16T21:26:12.295Z,0.80
2022-11-16T21:32:00.105Z,1.40
2022-11-16T21:37:58.220Z,2.10
2022-11-16T21:43:47.138Z,0.90
2022-11-16T21:49:54.264Z,1.25
2022-11-16T21:55:50.233Z,1.50
2022-11-16T22:02:00.285Z,1.42
2022-11-16T22:07:47.193Z,1.30
2022-11-16T22:13:34.391Z,1.70
2022-11-16T22:19:21.306Z,1.90
2022-11-16T22:25:08.560Z,1.65
2022-11-16T22:31:10.049Z,1.95
2022-11-16T22:36:57.360Z,3.28
2022-11-16T22:42:44.120Z,1.60
2022-11-16T22:48:32.688Z,2.83
2022-11-16T22:54:22.220Z,2.35
2022-11-16T23:00:15.261Z,3.00
2022-11-16T23:06:02.823Z,2.47
2022-11-16T23:12:08.032Z,5.68
2022-11-16T23:17:55.507Z,4.07
2022-11-16T23:24:01.185Z,3.67
2022-11-16T23:29:48.198Z,3.50
2022-11-16T23:35:43.945Z,3.50
2022-11-16T23:41:49.467Z,4.38
2022-11-16T23:47:40.177Z,3.47
2022-11-16T23:53:29.809Z,2.67
2022-11-16T23:59:17.011Z,4.97
